NM46 weather

Pay Jay Nr 2 Heliport
Artesia, New Mexico, United States

Public forecast

Using degrees Fahrenheit for public forecast. Weather courtesy of forecast.io.

Closest aviation weather report (METAR) to Pay Jay Nr 2 Heliport

Closest report is Artesia Municipal Airport, 3.5 nm (6.4 km) WNW. Retrieved 2020/01/28 22:35 UTC (0 seconds ago):

KATS 282235Z AUTO 00000KT 10SM CLR 14/M05 A3008 RMK AO2

Closest aviation forecast (TAF) to Pay Jay Nr 2 Heliport

Closest forecast is Roswell International Air Center Airport, 28.5 nm (52.7 km) NNW. Retrieved 2020/01/28 18:42 UTC (4 hours ago):

TAF KROW 281739Z 2818/2918 35020G28KT P6SM SKC FM282300 36011KT P6SM SKC FM290200 VRB05KT P6SM SKC